Time;durP1;ratioP1;P1;durP2;ratioP2;P2;SDS_P1;SDS_P2;PMS_P1;PMS_P2;Temp;Humidity;BMP_temperature;BMP_pressure;BME280_temperature;BME280_humidity;BME280_pressure;Samples;Min_cycle;Max_cycle;Signal;HPM_P1;HPM_P2
2022/01/26 00:08:40;;;;;;;8.40;7.55;;;21.20;66.00;;;;;;6208925;28;87601;-66
2022/01/26 00:11:43;;;;;;;9.07;8.18;;;21.20;66.10;;;;;;6209285;28;89081;-66
2022/01/26 00:14:46;;;;;;;8.73;7.93;;;21.20;66.20;;;;;;6200882;28;89058;-66
2022/01/26 00:17:50;;;;;;;8.63;7.72;;;21.10;66.10;;;;;;6207508;28;89198;-66
2022/01/26 00:20:55;;;;;;;8.82;8.02;;;21.20;66.20;;;;;;6203032;28;88323;-66
2022/01/26 00:24:37;;;;;;;9.30;8.40;;;21.10;66.10;;;;;;6197944;28;89084;-66
2022/01/26 00:27:50;;;;;;;9.18;8.35;;;21.10;66.20;;;;;;6211326;28;87976;-66
2022/01/26 00:41:03;;;;;;;9.65;8.75;;;21.10;66.30;;;;;;6197849;28;87409;-66
2022/01/26 00:44:07;;;;;;;9.23;8.38;;;21.10;66.30;;;;;;6196309;28;89226;-66
2022/01/26 00:47:11;;;;;;;9.10;8.20;;;21.10;66.30;;;;;;6198543;28;89190;-66
2022/01/26 00:50:13;;;;;;;9.07;8.27;;;21.10;66.30;;;;;;6210459;28;89120;-66
2022/01/26 00:53:15;;;;;;;8.57;7.78;;;21.00;66.20;;;;;;6209878;28;88454;-66
2022/01/26 00:56:18;;;;;;;8.77;7.97;;;21.00;66.20;;;;;;6208063;28;89140;-65
2022/01/26 00:59:20;;;;;;;8.82;8.02;;;21.00;66.30;;;;;;6209772;28;89057;-66
2022/01/26 01:02:23;;;;;;;9.13;8.23;;;21.00;66.30;;;;;;6220539;28;90320;-66
2022/01/26 01:05:31;;;;;;;8.80;8.00;;;21.00;66.30;;;;;;6185568;28;89053;-66
2022/01/26 01:08:34;;;;;;;9.10;8.20;;;21.00;66.30;;;;;;6206900;28;87956;-66
2022/01/26 01:11:36;;;;;;;8.88;8.07;;;20.90;66.30;;;;;;6199772;28;88850;-66
2022/01/26 01:14:40;;;;;;;8.55;7.80;;;21.00;66.30;;;;;;6208841;28;89058;-66
2022/01/26 01:17:48;;;;;;;8.73;7.93;;;21.00;66.40;;;;;;6210616;28;89057;-66
2022/01/26 01:21:10;;;;;;;8.82;8.02;;;21.00;66.40;;;;;;6207774;28;89247;-67
2022/01/26 01:24:37;;;;;;;8.93;7.85;;;20.90;66.40;;;;;;6195306;28;88174;-66
2022/01/26 01:27:59;;;;;;;8.30;7.57;;;20.90;66.30;;;;;;6198957;28;88938;-66
2022/01/26 01:31:11;;;;;;;8.55;7.75;;;20.90;66.30;;;;;;6183133;28;87978;-66
2022/01/26 01:34:17;;;;;;;8.88;7.97;;;20.90;66.30;;;;;;6196016;28;90035;-66
2022/01/26 01:37:19;;;;;;;8.23;7.38;;;20.90;66.30;;;;;;6207985;28;88197;-66
2022/01/26 01:40:21;;;;;;;8.32;7.53;;;20.90;66.30;;;;;;6200608;28;89496;-66
2022/01/26 01:43:24;;;;;;;8.23;7.43;;;20.90;66.40;;;;;;6204891;28;89285;-66
2022/01/26 01:46:28;;;;;;;8.13;7.38;;;20.90;66.40;;;;;;6209210;28;89194;-66
2022/01/26 01:49:32;;;;;;;8.15;7.40;;;20.80;66.30;;;;;;6202223;28;89142;-66
2022/01/26 01:52:34;;;;;;;7.97;7.22;;;20.80;66.30;;;;;;6197351;28;89510;-66
2022/01/26 01:55:39;;;;;;;8.38;7.57;;;20.80;66.40;;;;;;6194297;28;88352;-66
2022/01/26 01:58:42;;;;;;;8.13;7.32;;;20.90;66.50;;;;;;6207319;28;88944;-66
2022/01/26 02:01:44;;;;;;;8.38;7.57;;;20.90;66.50;;;;;;6206826;28;87931;-66
2022/01/26 02:04:48;;;;;;;7.55;6.85;;;20.80;66.50;;;;;;6196445;28;90354;-66
2022/01/26 02:07:50;;;;;;;7.88;7.07;;;20.80;66.50;;;;;;6194377;28;89097;-65
2022/01/26 02:10:52;;;;;;;7.75;7.05;;;20.80;66.50;;;;;;6206855;28;89468;-66
2022/01/26 02:14:01;;;;;;;8.07;7.30;;;20.80;66.50;;;;;;6207799;28;89173;-66
2022/01/26 02:17:13;;;;;;;7.63;6.93;;;20.80;66.50;;;;;;6209929;28;89214;-66
2022/01/26 02:20:50;;;;;;;7.40;6.70;;;20.80;66.40;;;;;;6206228;28;89059;-66
2022/01/26 03:00:51;;;;;;;7.13;6.45;;;20.70;66.40;;;;;;6188180;28;86984;-65
2022/01/26 03:04:02;;;;;;;7.38;6.68;;;20.70;66.50;;;;;;6195162;28;88752;-66
2022/01/26 03:07:10;;;;;;;7.22;6.53;;;20.70;66.50;;;;;;6206286;28;88997;-66
2022/01/26 03:10:20;;;;;;;6.97;6.38;;;20.70;66.50;;;;;;6201680;28;89708;-66
2022/01/26 03:13:27;;;;;;;6.95;6.35;;;20.70;66.50;;;;;;6200246;28;89258;-66
2022/01/26 03:16:34;;;;;;;7.95;7.15;;;20.70;66.40;;;;;;6200939;28;89194;-66
2022/01/26 03:19:39;;;;;;;6.95;6.28;;;20.70;66.40;;;;;;6205954;28;89349;-66
2022/01/26 03:29:40;;;;;;;6.45;5.85;;;20.70;66.50;;;;;;6201289;28;87316;-66
2022/01/26 03:33:07;;;;;;;6.47;5.93;;;20.70;66.50;;;;;;6205239;28;88316;-66
2022/01/26 03:36:12;;;;;;;6.65;6.05;;;20.60;66.40;;;;;;6198245;28;89076;-66
2022/01/26 03:39:16;;;;;;;6.70;6.10;;;20.60;66.50;;;;;;6196495;28;88947;-66
2022/01/26 03:42:20;;;;;;;6.50;5.90;;;20.70;66.50;;;;;;6206981;28;90014;-66
2022/01/26 03:45:22;;;;;;;6.38;5.78;;;20.60;66.40;;;;;;6204406;28;89364;-66
2022/01/26 03:48:24;;;;;;;6.25;5.65;;;20.60;67.30;;;;;;6207609;28;89105;-66
2022/01/26 03:51:26;;;;;;;6.20;5.60;;;20.60;66.40;;;;;;6187719;28;89151;-66
2022/01/26 03:54:29;;;;;;;6.22;5.65;;;20.60;66.50;;;;;;6209224;28;88058;-66
2022/01/26 03:57:32;;;;;;;6.30;5.70;;;20.60;66.50;;;;;;6210435;28;88672;-66
2022/01/26 04:00:35;;;;;;;6.28;5.70;;;20.60;66.50;;;;;;6198924;28;87977;-66
2022/01/26 04:03:37;;;;;;;6.57;5.97;;;20.50;66.50;;;;;;6208291;28;88727;-66
2022/01/26 04:06:39;;;;;;;6.43;5.82;;;20.50;66.50;;;;;;6187680;28;89129;-66
2022/01/26 04:09:41;;;;;;;6.55;5.95;;;20.60;66.50;;;;;;6198979;28;89087;-66
2022/01/26 04:12:45;;;;;;;6.55;5.88;;;20.60;66.50;;;;;;6212118;28;89952;-66
2022/01/26 04:15:47;;;;;;;6.13;5.60;;;20.60;66.40;;;;;;6200173;28;89070;-65
2022/01/26 04:18:49;;;;;;;5.82;5.32;;;20.60;66.30;;;;;;6207014;28;89111;-66
2022/01/26 04:22:01;;;;;;;5.90;5.40;;;20.60;66.30;;;;;;6212200;28;89407;-66
2022/01/26 04:25:05;;;;;;;6.80;6.10;;;20.60;66.10;;;;;;6208318;28;89134;-66
2022/01/26 04:28:15;;;;;;;5.90;5.35;;;20.60;66.10;;;;;;6186586;28;89321;-66
2022/01/26 04:31:20;;;;;;;6.22;5.63;;;20.60;66.00;;;;;;6184684;28;89169;-65
2022/01/26 04:34:23;;;;;;;6.10;5.50;;;20.70;66.30;;;;;;6196818;28;88514;-66
2022/01/26 04:37:46;;;;;;;5.80;5.30;;;20.70;66.00;;;;;;6198896;28;89737;-65
2022/01/26 04:41:00;;;;;;;6.07;5.47;;;20.70;66.00;;;;;;6186135;28;87975;-66
2022/01/26 04:44:09;;;;;;;5.93;5.43;;;20.70;66.00;;;;;;6196194;28;90036;-66
2022/01/26 04:47:11;;;;;;;6.20;5.60;;;20.70;65.90;;;;;;6202010;28;89115;-65
2022/01/26 04:50:13;;;;;;;5.72;5.20;;;20.70;66.00;;;;;;6208571;28;89116;-66
2022/01/26 04:53:15;;;;;;;6.18;5.57;;;20.70;65.90;;;;;;6213792;28;89063;-65
2022/01/26 04:56:17;;;;;;;5.90;5.38;;;20.80;65.80;;;;;;6211889;28;89028;-66
2022/01/26 04:59:21;;;;;;;5.90;5.30;;;20.80;65.80;;;;;;6230968;28;89121;-66
2022/01/26 05:02:23;;;;;;;5.63;5.13;;;20.80;65.80;;;;;;6198648;28;89409;-66
2022/01/26 05:05:25;;;;;;;6.05;5.45;;;20.80;65.80;;;;;;6196681;28;88814;-66
2022/01/26 05:08:27;;;;;;;5.90;5.32;;;20.80;65.70;;;;;;6194956;28;89215;-66
2022/01/26 05:11:35;;;;;;;5.43;4.93;;;20.90;65.70;;;;;;6201023;28;89138;-65
2022/01/26 05:14:43;;;;;;;6.30;5.22;;;20.90;65.70;;;;;;6209846;28;91562;-66
2022/01/26 05:17:45;;;;;;;5.47;4.97;;;21.00;66.60;;;;;;6196285;28;89118;-66
2022/01/26 05:20:47;;;;;;;6.20;5.60;;;20.90;65.60;;;;;;6198792;28;89037;-66
2022/01/26 05:23:49;;;;;;;5.60;5.10;;;21.00;65.60;;;;;;6207254;28;89058;-66
2022/01/26 05:26:51;;;;;;;5.50;5.00;;;21.00;65.60;;;;;;6208116;28;89066;-66
2022/01/26 05:29:54;;;;;;;5.90;5.00;;;21.00;65.60;;;;;;6198415;28;89063;-65
2022/01/26 05:32:56;;;;;;;5.05;4.60;;;21.00;65.60;;;;;;6207262;28;89080;-66
2022/01/26 05:35:59;;;;;;;5.55;5.05;;;21.00;65.60;;;;;;6208113;28;88523;-65
2022/01/26 05:39:01;;;;;;;5.43;4.93;;;21.00;65.60;;;;;;6195866;28;88132;-66
2022/01/26 05:42:05;;;;;;;5.93;5.32;;;21.00;65.60;;;;;;6205592;28;89119;-66
2022/01/26 05:45:19;;;;;;;5.28;4.78;;;21.00;65.60;;;;;;6187913;28;90647;-66
2022/01/26 05:48:21;;;;;;;5.50;4.95;;;21.00;65.70;;;;;;6204392;28;89236;-65
2022/01/26 05:51:23;;;;;;;5.40;4.90;;;21.00;65.80;;;;;;6196542;28;89158;-66
2022/01/26 05:54:25;;;;;;;5.35;4.85;;;21.00;66.10;;;;;;6196814;28;89550;-66
2022/01/26 05:57:27;;;;;;;5.18;4.68;;;21.00;66.30;;;;;;6204354;28;89469;-66
2022/01/26 06:00:31;;;;;;;5.60;4.97;;;21.00;66.40;;;;;;6197501;28;89185;-65
2022/01/26 06:03:33;;;;;;;5.57;5.07;;;21.00;66.30;;;;;;6194878;28;89159;-66
2022/01/26 06:06:35;;;;;;;5.25;4.78;;;21.10;66.50;;;;;;6199400;28;88504;-66
2022/01/26 06:09:37;;;;;;;5.20;4.70;;;21.10;66.40;;;;;;6196557;28;89218;-66
2022/01/26 06:12:39;;;;;;;5.30;4.78;;;21.10;66.30;;;;;;6197798;28;89457;-66
2022/01/26 06:15:44;;;;;;;5.22;4.68;;;21.10;66.30;;;;;;6193399;28;90060;-66
2022/01/26 06:18:46;;;;;;;6.00;4.43;;;21.10;67.20;;;;;;6196603;28;88226;-66
2022/01/26 06:21:48;;;;;;;4.78;4.38;;;21.20;66.30;;;;;;6204989;28;89305;-66
2022/01/26 06:24:52;;;;;;;5.35;4.82;;;21.20;66.30;;;;;;6204618;28;89026;-66
2022/01/26 06:27:56;;;;;;;5.10;4.60;;;21.20;66.20;;;;;;6201230;28;89097;-66
2022/01/26 06:31:03;;;;;;;4.95;4.45;;;21.20;66.10;;;;;;6211115;28;88899;-66
2022/01/26 06:34:05;;;;;;;5.25;4.75;;;21.20;66.10;;;;;;6195389;28;89001;-67
2022/01/26 06:37:07;;;;;;;5.00;4.50;;;21.20;66.00;;;;;;6208305;28;88334;-66
2022/01/26 06:40:28;;;;;;;5.20;4.68;;;21.20;66.00;;;;;;6199831;28;89414;-66
2022/01/26 06:43:31;;;;;;;4.78;4.38;;;21.20;66.00;;;;;;6200397;28;89043;-66
2022/01/26 06:46:44;;;;;;;5.22;4.72;;;21.20;65.90;;;;;;6203607;28;90025;-66
2022/01/26 06:49:47;;;;;;;5.13;4.63;;;21.20;65.80;;;;;;6198239;28;89159;-66
2022/01/26 06:53:07;;;;;;;6.25;5.03;;;21.30;65.80;;;;;;6199080;28;89042;-66
2022/01/26 06:56:09;;;;;;;4.90;4.40;;;21.30;65.70;;;;;;6206178;28;89114;-66
2022/01/26 06:59:12;;;;;;;5.88;4.30;;;21.30;65.60;;;;;;6205245;28;89209;-66
2022/01/26 07:02:15;;;;;;;5.28;4.78;;;21.40;65.70;;;;;;6208197;28;89119;-66
2022/01/26 07:05:19;;;;;;;4.53;4.13;;;21.40;65.50;;;;;;6203949;28;89126;-66
2022/01/26 07:08:21;;;;;;;5.18;4.18;;;21.40;65.50;;;;;;6206946;28;88591;-66
2022/01/26 07:11:24;;;;;;;4.85;4.43;;;21.50;65.50;;;;;;6206476;28;89069;-65
2022/01/26 07:19:47;;;;;;;4.90;4.40;;;21.50;65.50;;;;;;6202931;28;89042;-66
2022/01/26 07:21:28;;;;;;;4.63;4.20;;;21.60;65.50;;;;;;6202546;28;88264;-66
2022/01/26 07:24:30;;;;;;;4.57;4.18;;;21.50;65.40;;;;;;6202424;28;89103;-66
2022/01/26 07:27:32;;;;;;;4.28;3.88;;;21.60;65.30;;;;;;6207800;28;89181;-66
2022/01/26 07:30:35;;;;;;;4.75;4.30;;;21.60;65.30;;;;;;6205202;28;88282;-66
2022/01/26 07:33:41;;;;;;;4.45;4.05;;;21.60;65.30;;;;;;6205907;28;88996;-65
2022/01/26 07:36:46;;;;;;;4.80;4.30;;;21.70;65.30;;;;;;6201580;28;87786;-66
2022/01/26 07:40:01;;;;;;;4.60;4.20;;;21.70;65.20;;;;;;6207414;28;88286;-66
2022/01/26 07:43:22;;;;;;;5.05;3.90;;;21.70;65.20;;;;;;6203466;28;89213;-66
2022/01/26 07:46:24;;;;;;;4.28;3.88;;;21.70;65.20;;;;;;6195486;28;89171;-66
2022/01/26 07:49:28;;;;;;;4.40;4.00;;;21.80;65.20;;;;;;6192533;28;90136;-66
2022/01/26 07:52:34;;;;;;;4.60;4.05;;;21.80;65.20;;;;;;6203078;28;89037;-66
2022/01/26 07:55:36;;;;;;;4.25;3.83;;;21.80;65.10;;;;;;6203686;28;88922;-66
2022/01/26 07:58:40;;;;;;;4.28;3.85;;;21.80;65.00;;;;;;6180055;28;89514;-66
2022/01/26 08:01:42;;;;;;;4.47;4.07;;;21.80;65.00;;;;;;6199387;28;89030;-66
2022/01/26 08:04:45;;;;;;;4.22;3.83;;;21.80;65.00;;;;;;6201644;28;88019;-67
2022/01/26 08:07:47;;;;;;;5.40;4.10;;;21.90;65.10;;;;;;6206718;28;89041;-66
2022/01/26 08:10:50;;;;;;;4.60;4.10;;;21.90;65.20;;;;;;6202163;28;88645;-65
2022/01/26 08:13:53;;;;;;;4.45;3.88;;;21.90;65.20;;;;;;6197734;28;88951;-66
2022/01/26 08:16:55;;;;;;;4.18;3.78;;;21.90;65.10;;;;;;6203712;28;89526;-66
2022/01/26 08:19:59;;;;;;;4.97;4.07;;;21.90;65.00;;;;;;6191855;28;90003;-67
2022/01/26 08:23:01;;;;;;;6.75;3.63;;;22.00;65.00;;;;;;6194519;28;87975;-66
2022/01/26 08:26:03;;;;;;;4.35;3.95;;;21.90;65.00;;;;;;6213737;28;87667;-66
2022/01/26 08:29:11;;;;;;;3.60;3.30;;;22.00;65.00;;;;;;6209392;28;88972;-66
2022/01/26 08:32:13;;;;;;;4.28;3.60;;;22.00;65.00;;;;;;6209751;28;89623;-67
2022/01/26 08:35:17;;;;;;;5.15;3.80;;;22.00;65.00;;;;;;6199716;28;89309;-66
2022/01/26 08:38:20;;;;;;;5.18;3.92;;;22.00;65.00;;;;;;6194959;28;89036;-66
2022/01/26 08:41:22;;;;;;;4.47;3.97;;;22.00;64.90;;;;;;6215009;28;88206;-66
2022/01/26 08:44:24;;;;;;;4.28;3.88;;;22.00;64.90;;;;;;6199848;28;89153;-66
2022/01/26 08:47:26;;;;;;;4.47;3.72;;;22.10;64.90;;;;;;6198851;28;89093;-66
2022/01/26 08:50:30;;;;;;;4.10;3.70;;;22.10;64.90;;;;;;6196575;28;90314;-65
2022/01/26 08:53:32;;;;;;;3.92;3.45;;;22.10;64.90;;;;;;6207143;28;88688;-66
2022/01/26 08:56:34;;;;;;;3.80;3.40;;;22.10;64.90;;;;;;6208241;28;89004;-66
2022/01/26 08:59:36;;;;;;;4.13;3.70;;;22.10;65.80;;;;;;6210059;28;89031;-66
2022/01/26 09:02:38;;;;;;;4.20;3.45;;;22.10;64.90;;;;;;6207684;28;88010;-66
2022/01/26 09:05:41;;;;;;;3.63;3.30;;;22.10;64.90;;;;;;6182755;28;89114;-66
2022/01/26 09:08:51;;;;;;;4.00;3.60;;;22.10;64.90;;;;;;6210374;28;89118;-66
2022/01/26 09:11:54;;;;;;;4.88;3.65;;;22.10;64.80;;;;;;6196579;28;88366;-66
2022/01/26 09:15:00;;;;;;;3.97;3.63;;;22.20;64.90;;;;;;6209031;28;89250;-66
2022/01/26 09:18:05;;;;;;;4.13;3.67;;;22.20;64.90;;;;;;6207603;28;89501;-66
2022/01/26 09:21:09;;;;;;;4.05;3.65;;;22.20;64.80;;;;;;6189670;28;89928;-67
2022/01/26 09:24:11;;;;;;;3.80;3.40;;;22.20;64.80;;;;;;6200764;28;89029;-66
2022/01/26 09:27:16;;;;;;;4.00;3.60;;;22.20;64.70;;;;;;6198780;28;89129;-66
2022/01/26 09:30:18;;;;;;;3.80;3.50;;;22.20;64.70;;;;;;6209723;28;89045;-66
2022/01/26 09:33:20;;;;;;;3.63;3.33;;;22.20;65.70;;;;;;6204160;28;89139;-66
2022/01/26 09:36:24;;;;;;;3.58;3.28;;;22.20;64.90;;;;;;6204814;28;89264;-66
2022/01/26 09:39:26;;;;;;;3.92;3.53;;;22.20;64.80;;;;;;6207400;28;87974;-66
2022/01/26 09:42:28;;;;;;;3.72;3.40;;;22.20;64.70;;;;;;6207917;28;88351;-66
2022/01/26 09:45:34;;;;;;;3.70;3.40;;;22.30;64.80;;;;;;6193066;28;88978;-66
2022/01/26 09:48:38;;;;;;;3.72;3.42;;;22.20;64.70;;;;;;6206830;28;88977;-67
2022/01/26 09:51:43;;;;;;;4.20;3.60;;;22.30;64.70;;;;;;6207972;28;89861;-67
2022/01/26 09:54:45;;;;;;;3.70;3.40;;;22.30;64.70;;;;;;6204528;28;89137;-67
2022/01/26 09:57:47;;;;;;;4.53;3.35;;;22.30;64.70;;;;;;6197994;28;89331;-66
2022/01/26 10:00:58;;;;;;;3.67;3.38;;;22.30;64.70;;;;;;6194159;28;89054;-66
2022/01/26 10:04:00;;;;;;;4.32;3.70;;;22.30;64.70;;;;;;6195734;28;88761;-66
2022/01/26 10:07:11;;;;;;;4.07;3.63;;;22.30;64.70;;;;;;6195440;28;89409;-66
2022/01/26 10:20:18;;;;;;;4.00;3.60;;;22.30;64.50;;;;;;6196105;28;87527;-66
2022/01/26 10:23:23;;;;;;;4.22;3.60;;;22.40;64.70;;;;;;6205040;28;88701;-66
2022/01/26 10:26:25;;;;;;;3.70;3.40;;;22.40;64.70;;;;;;6193767;28;89052;-66
2022/01/26 10:29:29;;;;;;;3.75;3.35;;;22.40;64.60;;;;;;6207621;28;89376;-66
2022/01/26 10:32:33;;;;;;;3.60;3.30;;;22.30;64.50;;;;;;6196730;28;89104;-66
2022/01/26 10:35:36;;;;;;;4.53;3.60;;;22.40;64.60;;;;;;6206535;28;89324;-66
2022/01/26 10:38:39;;;;;;;3.70;3.40;;;22.40;64.60;;;;;;6194140;28;89109;-66
2022/01/26 10:41:43;;;;;;;3.60;3.30;;;22.40;64.70;;;;;;6206702;28;89475;-66
2022/01/26 10:44:52;;;;;;;3.83;3.47;;;22.40;64.70;;;;;;6222122;28;87241;-66
2022/01/26 10:47:54;;;;;;;3.90;3.50;;;22.40;64.70;;;;;;6206593;28;89272;-66
2022/01/26 10:51:21;;;;;;;4.00;3.47;;;22.40;64.70;;;;;;6207910;28;89388;-66
2022/01/26 10:54:36;;;;;;;5.00;3.08;;;22.40;64.70;;;;;;6181688;28;90104;-66
2022/01/26 10:57:38;;;;;;;4.15;3.28;;;22.40;64.70;;;;;;6194463;28;89084;-66
2022/01/26 11:00:41;;;;;;;3.85;3.45;;;22.40;64.70;;;;;;6206553;28;89019;-66
2022/01/26 11:03:43;;;;;;;4.50;3.38;;;22.40;64.80;;;;;;6201139;28;89211;-66
2022/01/26 11:06:51;;;;;;;3.28;2.97;;;22.40;64.80;;;;;;6198881;28;89038;-66
2022/01/26 11:09:55;;;;;;;4.30;3.28;;;22.40;64.80;;;;;;6191036;28;89187;-66
2022/01/26 11:12:57;;;;;;;3.60;3.20;;;22.40;64.80;;;;;;6183054;28;87982;-66
2022/01/26 11:16:09;;;;;;;4.70;3.22;;;22.30;64.90;;;;;;6201556;28;88765;-65
2022/01/26 11:19:15;;;;;;;5.07;3.30;;;22.40;64.90;;;;;;6205279;28;89322;-67
2022/01/26 11:22:18;;;;;;;3.65;3.33;;;22.40;64.90;;;;;;6194042;28;88989;-66
2022/01/26 11:25:23;;;;;;;3.78;3.40;;;22.40;64.90;;;;;;6189955;28;90382;-66
2022/01/26 11:28:28;;;;;;;4.22;3.35;;;22.30;64.90;;;;;;6198557;28;89420;-66
2022/01/26 11:31:33;;;;;;;3.70;3.40;;;22.30;65.00;;;;;;6218914;28;87912;-66
2022/01/26 11:34:35;;;;;;;3.55;3.25;;;22.30;65.00;;;;;;6195472;28;88870;-66
2022/01/26 11:37:41;;;;;;;3.50;3.20;;;22.20;65.00;;;;;;6205801;28;89523;-66
2022/01/26 11:47:37;;;;;;;3.53;3.22;;;22.20;65.30;;;;;;6186044;28;86626;-66
2022/01/26 11:50:43;;;;;;;5.07;3.58;;;22.10;65.40;;;;;;6192608;28;89063;-66
2022/01/26 11:53:45;;;;;;;3.90;3.33;;;22.10;65.40;;;;;;6206352;28;89398;-67
2022/01/26 11:57:05;;;;;;;3.38;3.08;;;22.00;65.40;;;;;;6181361;28;90318;-66
2022/01/26 12:00:12;;;;;;;3.40;3.10;;;22.00;65.50;;;;;;6189672;28;89381;-66
2022/01/26 12:03:34;;;;;;;3.50;3.20;;;22.00;65.50;;;;;;6186726;28;88934;-66
2022/01/26 12:06:42;;;;;;;3.60;3.30;;;21.90;65.60;;;;;;6196214;28;88964;-66
2022/01/26 12:10:04;;;;;;;3.92;3.50;;;22.00;67.00;;;;;;6198174;28;89406;-66
2022/01/26 12:13:10;;;;;;;6.50;3.85;;;21.90;67.90;;;;;;6191140;28;89389;-66
2022/01/26 12:16:19;;;;;;;5.00;4.10;;;22.00;73.20;;;;;;6190632;28;87983;-66
2022/01/26 12:19:31;;;;;;;1537.68;492.45;;;22.00;72.10;;;;;;6195991;28;88281;-66
2022/01/26 12:36:00;;;;;;;145.55;41.72;;;22.10;86.60;;;;;;6204539;28;87192;-67
2022/01/26 12:39:09;;;;;;;130.15;38.20;;;22.20;85.00;;;;;;6197127;28;89107;-67
2022/01/26 12:42:12;;;;;;;126.68;35.70;;;22.20;82.70;;;;;;6203733;28;88130;-67
2022/01/26 12:45:17;;;;;;;116.97;34.40;;;22.30;83.00;;;;;;6191571;28;89394;-67
2022/01/26 12:48:19;;;;;;;112.53;33.17;;;22.30;78.90;;;;;;6194423;28;89376;-68
2022/01/26 12:51:22;;;;;;;106.18;31.98;;;22.30;77.40;;;;;;6208714;28;88345;-68
2022/01/26 12:54:45;;;;;;;97.10;30.30;;;22.30;76.10;;;;;;6206866;28;89180;-67
2022/01/26 12:57:48;;;;;;;91.63;30.13;;;22.30;75.20;;;;;;6197818;28;89297;-68
2022/01/26 13:00:52;;;;;;;83.28;27.70;;;22.30;74.50;;;;;;6195719;28;90195;-68
2022/01/26 13:03:57;;;;;;;78.97;28.02;;;22.30;74.10;;;;;;6195561;28;89220;-67
2022/01/26 13:06:59;;;;;;;73.07;26.30;;;22.20;73.60;;;;;;6192926;28;89399;-68
2022/01/26 13:10:01;;;;;;;70.75;24.65;;;22.20;73.20;;;;;;6212451;28;88186;-68
2022/01/26 13:13:16;;;;;;;75.47;25.27;;;22.20;72.80;;;;;;6204789;28;89278;-67
2022/01/26 13:16:24;;;;;;;72.40;25.20;;;22.20;72.60;;;;;;6206079;28;89040;-67
2022/01/26 13:19:46;;;;;;;64.07;22.75;;;22.20;72.30;;;;;;6199342;28;89252;-68
2022/01/26 13:23:04;;;;;;;60.22;22.52;;;22.20;72.00;;;;;;6194645;28;88469;-67
2022/01/26 13:26:16;;;;;;;62.15;21.92;;;22.20;72.00;;;;;;6197985;28;89433;-68
2022/01/26 13:29:36;;;;;;;59.00;21.52;;;22.10;72.00;;;;;;6186373;28;88874;-66
2022/01/26 13:33:26;;;;;;;52.20;20.50;;;22.10;73.00;;;;;;6200041;28;89483;-67
2022/01/26 13:36:47;;;;;;;56.25;19.60;;;22.10;72.60;;;;;;6196188;28;88582;-66
2022/01/26 13:39:57;;;;;;;52.10;20.08;;;22.10;72.10;;;;;;6209432;28;89467;-67
2022/01/26 13:43:41;;;;;;;50.80;19.33;;;22.10;71.80;;;;;;6206649;28;87006;-66
2022/01/26 13:47:04;;;;;;;41.38;17.55;;;22.00;71.50;;;;;;6194956;28;89456;-66
2022/01/26 13:50:20;;;;;;;46.00;18.08;;;22.00;71.50;;;;;;6217981;28;89013;-67
2022/01/26 13:53:30;;;;;;;45.75;17.95;;;22.00;71.30;;;;;;6209568;28;89134;-67
2022/01/26 13:56:39;;;;;;;45.55;18.40;;;22.00;71.10;;;;;;6200651;28;88343;-67
2022/01/26 13:59:45;;;;;;;45.17;17.80;;;22.00;71.10;;;;;;6186240;28;89485;-67
2022/01/26 14:02:50;;;;;;;40.30;16.80;;;21.90;71.10;;;;;;6196877;28;88905;-67
2022/01/26 14:05:54;;;;;;;39.30;17.60;;;21.90;71.00;;;;;;6201494;28;90238;-67
2022/01/26 14:08:56;;;;;;;37.03;16.50;;;21.90;71.00;;;;;;6196338;28;89301;-65
2022/01/26 14:12:00;;;;;;;36.35;15.82;;;21.90;71.10;;;;;;6216599;28;89088;-67
2022/01/26 14:15:06;;;;;;;37.47;15.82;;;21.90;71.30;;;;;;6194526;28;89131;-67
2022/01/26 14:18:34;;;;;;;38.38;15.13;;;21.90;71.00;;;;;;6194290;28;89158;-67
2022/01/26 14:21:55;;;;;;;34.75;14.95;;;21.90;71.00;;;;;;6188110;28;88840;-68
2022/01/26 14:25:14;;;;;;;33.28;14.73;;;21.90;70.90;;;;;;6195725;28;89036;-68
2022/01/26 14:28:19;;;;;;;31.92;14.35;;;21.90;70.80;;;;;;6195195;28;88260;-68
2022/01/26 14:31:30;;;;;;;33.38;14.40;;;21.90;70.60;;;;;;6195499;28;87893;-67
2022/01/26 14:51:30;;;;;;;29.00;12.40;;;21.90;70.60;;;;;;6206353;28;87271;-67
2022/01/26 14:54:55;;;;;;;25.10;12.25;;;21.80;70.50;;;;;;6190109;28;87941;-67
2022/01/26 15:35:08;;;;;;;20.33;9.90;;;21.80;69.80;;;;;;6206991;28;87977;-68
2022/01/26 15:41:49;;;;;;;18.17;9.57;;;21.80;69.60;;;;;;6184589;28;87525;-68
2022/01/26 15:48:40;;;;;;;15.77;9.45;;;21.80;69.50;;;;;;6192253;28;89914;-68
2022/01/26 15:52:04;;;;;;;17.52;9.82;;;21.80;69.40;;;;;;6179313;28;88615;-68
2022/01/26 15:58:33;;;;;;;17.10;9.35;;;21.80;69.50;;;;;;6196642;28;87320;-68
2022/01/26 16:05:27;;;;;;;15.50;8.75;;;21.80;69.40;;;;;;6187724;28;87440;-68
2022/01/26 16:08:35;;;;;;;14.20;8.50;;;21.80;69.10;;;;;;6190748;28;89778;-67
2022/01/26 16:21:47;;;;;;;14.35;8.70;;;21.80;68.90;;;;;;6209703;28;87029;-68
2022/01/26 16:35:20;;;;;;;14.43;7.85;;;21.70;68.10;;;;;;6211295;28;87321;-68
2022/01/26 16:38:45;;;;;;;12.15;7.57;;;21.80;68.20;;;;;;6196292;28;89306;-67
2022/01/26 18:15:51;;;;;;;7.20;5.43;;;22.20;66.10;;;;;;6184659;28;87137;-67
2022/01/26 18:25:57;;;;;;;7.50;5.57;;;22.30;68.30;;;;;;6192050;28;88951;-70
2022/01/26 18:32:28;;;;;;;8.73;5.80;;;22.40;68.90;;;;;;6184597;28;89041;-68
2022/01/26 18:49:14;;;;;;;7.60;5.57;;;22.50;69.80;;;;;;6208805;28;89764;-68
2022/01/26 18:52:16;;;;;;;7.70;5.10;;;22.50;69.80;;;;;;6206951;28;89435;-68
2022/01/26 18:55:18;;;;;;;7.18;4.90;;;22.50;69.80;;;;;;6198185;28;87225;-68
2022/01/26 18:58:20;;;;;;;6.90;4.95;;;22.60;69.90;;;;;;6195479;28;89086;-68
2022/01/26 19:01:22;;;;;;;5.68;4.70;;;22.60;69.90;;;;;;6210703;28;89325;-68
2022/01/26 19:04:29;;;;;;;6.60;5.03;;;22.60;69.90;;;;;;6213847;28;90105;-68
2022/01/26 19:07:31;;;;;;;7.13;5.32;;;22.60;69.90;;;;;;6201740;28;87982;-68
2022/01/26 19:10:34;;;;;;;6.03;4.72;;;22.60;69.80;;;;;;6202745;28;89190;-68
2022/01/26 19:13:36;;;;;;;5.88;5.03;;;22.70;69.90;;;;;;6177734;28;87948;-69
2022/01/26 19:16:43;;;;;;;6.70;4.70;;;22.70;70.00;;;;;;6212839;28;89060;-67
2022/01/26 19:19:57;;;;;;;7.13;5.20;;;22.70;69.90;;;;;;6203865;28;89097;-68
2022/01/26 19:23:11;;;;;;;7.93;5.15;;;22.70;70.00;;;;;;6196369;28;88949;-67
2022/01/26 19:26:21;;;;;;;5.18;4.38;;;22.70;69.80;;;;;;6192544;28;88508;-67
2022/01/26 19:29:33;;;;;;;5.90;4.97;;;22.70;69.80;;;;;;6189599;28;87939;-68
2022/01/26 19:32:57;;;;;;;5.85;4.97;;;22.80;69.80;;;;;;6217760;28;89078;-68
2022/01/26 19:46:04;;;;;;;5.97;4.85;;;22.80;70.30;;;;;;6187367;28;89354;-68
2022/01/26 19:52:27;;;;;;;6.45;5.20;;;22.80;70.90;;;;;;6210080;28;87299;-69
2022/01/26 19:55:29;;;;;;;7.80;5.32;;;22.80;70.00;;;;;;6203817;28;88316;-69
2022/01/26 19:58:31;;;;;;;6.15;4.80;;;22.90;69.90;;;;;;6202781;28;88313;-70
2022/01/26 20:01:33;;;;;;;7.13;5.30;;;22.90;69.80;;;;;;6190705;28;89301;-69
2022/01/26 20:04:35;;;;;;;6.68;5.30;;;22.80;69.70;;;;;;6196596;28;89165;-69
2022/01/26 20:07:39;;;;;;;6.00;5.40;;;22.90;69.60;;;;;;6189545;28;89766;-68
2022/01/26 20:10:47;;;;;;;5.50;5.00;;;22.90;69.60;;;;;;6195153;28;89454;-68
2022/01/26 20:13:49;;;;;;;5.68;5.18;;;22.90;69.60;;;;;;6197812;28;90796;-68
2022/01/26 20:16:51;;;;;;;6.63;5.88;;;22.90;69.50;;;;;;6202949;28;89038;-67
2022/01/26 20:19:53;;;;;;;7.10;5.90;;;23.00;69.50;;;;;;6187947;28;89034;-70
2022/01/26 20:22:56;;;;;;;6.20;5.60;;;23.00;69.50;;;;;;6202108;28;87876;-68
2022/01/26 20:26:00;;;;;;;6.60;5.63;;;22.90;69.40;;;;;;6183813;28;89053;-68
2022/01/26 20:29:02;;;;;;;6.53;5.75;;;23.00;69.30;;;;;;6196304;28;89331;-68
2022/01/26 20:32:06;;;;;;;6.55;5.93;;;23.00;69.10;;;;;;6190616;28;89030;-69
2022/01/26 20:35:08;;;;;;;6.90;6.20;;;23.00;69.10;;;;;;6206819;28;89352;-69
2022/01/26 20:38:12;;;;;;;7.05;6.35;;;23.10;69.10;;;;;;6204654;28;90294;-69
2022/01/26 20:41:14;;;;;;;7.18;5.80;;;23.10;69.00;;;;;;6206594;28;89372;-69
2022/01/26 20:44:18;;;;;;;7.00;6.18;;;23.10;69.00;;;;;;6195241;28;88950;-69
2022/01/26 20:47:20;;;;;;;6.90;6.20;;;23.10;68.90;;;;;;6195604;28;89202;-68
2022/01/26 20:50:22;;;;;;;6.85;6.15;;;23.10;68.90;;;;;;6203001;28;89362;-69
2022/01/26 20:53:25;;;;;;;7.55;6.70;;;23.10;68.80;;;;;;6203503;28;89106;-70
2022/01/26 20:56:27;;;;;;;7.15;6.45;;;23.10;68.80;;;;;;6221491;28;88980;-69
2022/01/26 20:59:30;;;;;;;9.35;6.85;;;23.10;68.80;;;;;;6194640;28;88465;-69
2022/01/26 21:02:32;;;;;;;6.97;6.38;;;23.10;68.70;;;;;;6188566;28;89073;-68
2022/01/26 21:05:34;;;;;;;8.20;7.07;;;23.10;68.60;;;;;;6185386;28;88332;-68
2022/01/26 21:08:38;;;;;;;7.30;6.45;;;23.10;68.10;;;;;;6209543;28;89984;-67
2022/01/26 21:11:40;;;;;;;8.20;7.28;;;23.10;68.20;;;;;;6205746;28;90495;-67
2022/01/26 21:14:42;;;;;;;7.20;6.50;;;23.20;68.10;;;;;;6203687;28;90041;-67
2022/01/26 21:17:46;;;;;;;7.90;7.10;;;23.10;68.00;;;;;;6187710;28;89153;-67
2022/01/26 21:20:48;;;;;;;8.73;7.82;;;23.10;68.00;;;;;;6197680;28;88939;-68